Terminal Aerodrome Forecast
Issued by NWS Boston, MA

Home | Current Version | Previous Version | Text Only | Print | Product List | Glossary On
Versions: 1 2 3 4 5 6 7 8 9 10 11 12 13 14 15 16 17 18 19 20 21 22 23 24 25
000
FTUS41 KBOX 221120
TAFORH
TAF
KORH 221120Z 2212/2312 02010KT 5SM -SHRA BR OVC002
     FM221900 02013KT 5SM -SHRA BR OVC005
     FM230000 02015KT 2SM SHRA BR OVC002
     FM230600 03015KT 2SM SHRA BR OVC008
     FM231100 02013KT 2SM -SHRA BR OVC015 WS020/05045KT=

USA.gov is the U.S. government's official web portal to all federal, state and local government web resources and services.